createdAt,value
2019-03-06T00:01:44.666Z,8.71
2019-03-06T00:04:14.182Z,8.65
2019-03-06T00:06:43.671Z,8.60
2019-03-06T00:09:13.121Z,8.74
2019-03-06T00:11:42.599Z,8.73
2019-03-06T00:14:12.106Z,8.64
2019-03-06T00:16:41.619Z,8.74
2019-03-06T00:19:11.468Z,8.79
2019-03-06T00:21:40.974Z,8.83
2019-03-06T00:24:10.479Z,8.92
2019-03-06T00:26:40.028Z,9.00
2019-03-06T00:29:09.545Z,9.03
2019-03-06T00:31:39.162Z,8.99
2019-03-06T00:34:08.680Z,8.86
2019-03-06T00:36:38.292Z,8.79
2019-03-06T00:39:09.009Z,8.81
2019-03-06T00:41:43.910Z,8.87
2019-03-06T00:44:13.414Z,8.90
2019-03-06T00:46:42.889Z,8.91
2019-03-06T00:49:12.412Z,8.90
2019-03-06T00:51:41.862Z,8.91
2019-03-06T00:54:11.425Z,8.96
2019-03-06T00:56:40.924Z,8.94
2019-03-06T00:59:10.451Z,8.95
2019-03-06T01:01:39.965Z,9.01
2019-03-06T01:04:09.469Z,9.02
2019-03-06T01:06:38.990Z,9.07
2019-03-06T01:09:09.605Z,9.07
2019-03-06T01:11:39.151Z,8.85
2019-03-06T01:14:08.732Z,8.76
2019-03-06T01:16:38.226Z,8.71
2019-03-06T01:19:07.811Z,8.70
2019-03-06T01:21:37.330Z,8.67
2019-03-06T01:24:06.804Z,8.65
2019-03-06T01:26:36.306Z,8.68
2019-03-06T01:29:06.075Z,8.69
2019-03-06T01:31:35.753Z,8.68
2019-03-06T01:34:21.484Z,8.63
2019-03-06T01:37:22.249Z,8.55
2019-03-06T01:40:13.469Z,8.52
2019-03-06T01:42:56.343Z,8.48
2019-03-06T01:45:25.788Z,8.44
2019-03-06T01:47:55.256Z,8.42
2019-03-06T01:50:24.750Z,8.45
2019-03-06T01:52:54.223Z,8.43
2019-03-06T01:55:23.698Z,8.37
2019-03-06T01:57:53.167Z,8.33
2019-03-06T02:00:22.657Z,8.21
2019-03-06T02:02:52.461Z,8.17
2019-03-06T02:05:21.965Z,8.10
2019-03-06T02:07:51.424Z,8.11
2019-03-06T02:10:21.181Z,8.11
2019-03-06T02:12:50.667Z,8.10
2019-03-06T02:15:20.540Z,8.07
2019-03-06T02:17:50.039Z,8.06
2019-03-06T02:20:19.638Z,7.98
2019-03-06T02:22:49.122Z,7.80
2019-03-06T02:25:18.691Z,7.68
2019-03-06T02:27:48.187Z,7.66
2019-03-06T02:30:19.708Z,7.71
2019-03-06T02:32:49.185Z,7.71
2019-03-06T02:35:18.643Z,7.69
2019-03-06T02:37:48.120Z,7.77
2019-03-06T02:40:19.348Z,7.75
2019-03-06T02:42:48.806Z,7.79
2019-03-06T02:45:18.366Z,7.83
2019-03-06T02:47:47.865Z,7.88
2019-03-06T02:50:17.334Z,7.80
2019-03-06T02:52:46.833Z,7.77
2019-03-06T02:55:16.856Z,7.73
2019-03-06T02:57:55.567Z,7.72
2019-03-06T03:00:42.837Z,7.80
2019-03-06T03:03:30.832Z,7.85
2019-03-06T03:06:07.121Z,7.87
2019-03-06T03:08:37.192Z,7.88
2019-03-06T03:11:06.761Z,7.93
2019-03-06T03:13:36.240Z,7.88
2019-03-06T03:16:05.699Z,7.90
2019-03-06T03:18:35.183Z,7.85
2019-03-06T03:21:04.692Z,7.85
2019-03-06T03:23:34.144Z,7.80
2019-03-06T03:26:03.679Z,7.80
2019-03-06T03:28:33.124Z,7.77
2019-03-06T03:31:02.637Z,7.83
2019-03-06T03:33:32.087Z,7.85
2019-03-06T03:36:01.612Z,7.76
2019-03-06T03:38:31.097Z,7.69
2019-03-06T03:41:00.624Z,7.69
2019-03-06T03:43:30.082Z,7.57
2019-03-06T03:45:59.577Z,7.56
2019-03-06T03:48:29.082Z,7.59
2019-03-06T03:50:58.580Z,7.56
2019-03-06T03:53:28.071Z,7.46
2019-03-06T03:55:57.596Z,7.45
2019-03-06T03:58:27.071Z,7.35
2019-03-06T04:00:56.692Z,7.39
2019-03-06T04:03:26.315Z,7.48
2019-03-06T04:05:55.805Z,7.39
2019-03-06T04:08:25.285Z,7.40
2019-03-06T04:10:54.823Z,7.31
2019-03-06T04:13:24.343Z,7.30
2019-03-06T04:15:53.844Z,7.31
2019-03-06T04:18:23.372Z,7.32
2019-03-06T04:20:52.859Z,7.33
2019-03-06T04:23:22.463Z,7.43
2019-03-06T04:25:51.973Z,7.36
2019-03-06T04:28:21.476Z,7.39
2019-03-06T04:30:53.302Z,7.45
2019-03-06T04:33:22.833Z,7.44
2019-03-06T04:35:52.430Z,7.45
2019-03-06T04:38:21.907Z,7.45
2019-03-06T04:40:51.539Z,7.42
2019-03-06T04:43:21.044Z,7.48
2019-03-06T04:45:50.515Z,7.57
2019-03-06T04:48:20.022Z,7.75
2019-03-06T04:50:49.532Z,7.86
2019-03-06T04:53:19.103Z,7.85
2019-03-06T04:55:48.656Z,7.83
2019-03-06T04:58:18.158Z,7.85
2019-03-06T05:00:47.769Z,7.84
2019-03-06T05:03:17.308Z,7.85
2019-03-06T05:05:46.794Z,7.84
2019-03-06T05:08:16.290Z,7.83
2019-03-06T05:10:46.143Z,7.76
2019-03-06T05:13:15.995Z,7.62
2019-03-06T05:15:45.519Z,7.44
2019-03-06T05:18:46.489Z,7.46
2019-03-06T05:21:16.077Z,7.51
2019-03-06T05:23:45.567Z,7.42
2019-03-06T05:26:15.062Z,7.33
2019-03-06T05:28:44.565Z,7.34
2019-03-06T05:31:14.070Z,7.41
2019-03-06T05:33:43.585Z,7.46
2019-03-06T05:37:12.306Z,7.61
2019-03-06T05:39:41.835Z,7.73
2019-03-06T05:42:11.496Z,7.76
2019-03-06T05:44:41.382Z,7.86
2019-03-06T05:47:10.939Z,7.98
2019-03-06T05:49:40.444Z,8.02
2019-03-06T05:52:09.954Z,8.12
2019-03-06T05:54:39.613Z,8.17
2019-03-06T05:57:09.133Z,8.36
2019-03-06T05:59:38.704Z,8.50
2019-03-06T06:02:10.070Z,8.55
2019-03-06T06:04:39.603Z,8.63
2019-03-06T06:07:09.346Z,8.62
2019-03-06T06:09:38.944Z,8.69
2019-03-06T06:12:08.559Z,8.80
2019-03-06T06:14:38.118Z,8.84
2019-03-06T06:17:07.804Z,8.81
2019-03-06T06:19:37.501Z,8.86
2019-03-06T06:22:15.389Z,8.82
2019-03-06T06:24:46.843Z,8.84
2019-03-06T06:27:16.405Z,8.80
2019-03-06T06:29:46.129Z,8.92
2019-03-06T06:32:15.750Z,8.76
2019-03-06T06:34:45.416Z,8.80
2019-03-06T06:37:15.018Z,8.86
2019-03-06T06:39:44.659Z,8.87
2019-03-06T06:42:14.361Z,8.91
2019-03-06T06:44:43.863Z,8.92
2019-03-06T06:47:13.403Z,9.05
2019-03-06T06:49:42.917Z,9.15
2019-03-06T06:52:40.374Z,9.18
2019-03-06T06:55:49.829Z,9.36
2019-03-06T06:58:53.588Z,9.40
2019-03-06T07:02:09.062Z,9.67
2019-03-06T07:05:16.753Z,9.76
2019-03-06T07:08:03.972Z,9.97
2019-03-06T07:10:39.515Z,10.14
2019-03-06T07:13:17.395Z,10.14
2019-03-06T07:16:08.655Z,10.19
2019-03-06T07:19:15.282Z,10.24
2019-03-06T07:22:06.528Z,10.30
2019-03-06T07:25:01.245Z,10.37
2019-03-06T07:27:49.668Z,10.58
2019-03-06T07:30:34.406Z,10.61
2019-03-06T07:33:29.447Z,10.54
2019-03-06T07:36:24.267Z,10.42
2019-03-06T07:39:00.633Z,10.36
2019-03-06T07:41:50.191Z,10.41
2019-03-06T07:44:37.437Z,10.46
2019-03-06T07:47:25.989Z,10.52
2019-03-06T07:50:32.572Z,10.58
2019-03-06T07:54:12.548Z,10.55
2019-03-06T07:56:59.388Z,10.91
2019-03-06T07:59:29.000Z,11.28
2019-03-06T08:02:01.801Z,11.33
2019-03-06T08:04:31.459Z,11.57
2019-03-06T08:07:10.944Z,11.78
2019-03-06T08:09:40.450Z,11.74
2019-03-06T08:12:28.903Z,11.64
2019-03-06T08:15:21.151Z,11.66
2019-03-06T08:18:08.467Z,11.77
2019-03-06T08:20:50.531Z,11.73
2019-03-06T08:23:37.778Z,11.60
2019-03-06T08:26:07.337Z,11.28
2019-03-06T08:28:36.860Z,11.19
2019-03-06T08:31:24.182Z,11.27
2019-03-06T08:34:01.666Z,11.24
2019-03-06T08:36:31.212Z,11.33
2019-03-06T08:39:00.740Z,11.32
2019-03-06T08:41:30.313Z,11.40
2019-03-06T08:43:59.882Z,11.52
2019-03-06T08:46:48.341Z,11.64
2019-03-06T08:49:29.291Z,11.89
2019-03-06T08:52:16.465Z,12.01
2019-03-06T08:55:04.876Z,12.12
2019-03-06T08:57:52.452Z,12.29
2019-03-06T09:00:39.948Z,12.59
2019-03-06T09:03:46.658Z,12.49
2019-03-06T09:06:25.544Z,12.33
2019-03-06T09:09:14.030Z,12.38
2019-03-06T09:11:56.140Z,12.46
2019-03-06T09:14:42.407Z,12.50
2019-03-06T09:17:23.739Z,12.49
2019-03-06T09:20:04.674Z,12.66
2019-03-06T09:22:53.150Z,12.86
2019-03-06T09:25:32.768Z,12.66
2019-03-06T09:28:33.219Z,12.55
2019-03-06T09:31:17.167Z,12.49
2019-03-06T09:33:59.529Z,12.41
2019-03-06T09:36:45.081Z,12.47
2019-03-06T09:39:36.840Z,12.49
2019-03-06T09:42:19.029Z,12.63
2019-03-06T09:45:13.364Z,12.64
2019-03-06T09:48:07.279Z,12.61
2019-03-06T09:50:52.498Z,12.72
2019-03-06T09:53:35.117Z,12.98
2019-03-06T09:56:29.588Z,13.01
2019-03-06T09:59:04.852Z,13.04
2019-03-06T10:01:53.312Z,12.84
2019-03-06T10:04:32.417Z,12.83
2019-03-06T10:07:18.849Z,12.76
2019-03-06T10:10:13.122Z,12.77
2019-03-06T10:13:07.704Z,12.88
2019-03-06T10:15:44.018Z,12.81
2019-03-06T10:18:18.608Z,12.76
2019-03-06T10:20:48.089Z,12.76
2019-03-06T10:23:17.621Z,12.87
2019-03-06T10:25:47.153Z,12.97
2019-03-06T10:28:16.660Z,12.99
2019-03-06T10:30:46.172Z,12.98
2019-03-06T10:33:15.711Z,12.95
2019-03-06T10:35:45.434Z,13.04
2019-03-06T10:38:16.812Z,13.07
2019-03-06T10:40:46.211Z,13.07
2019-03-06T10:43:15.839Z,13.13
2019-03-06T10:45:45.342Z,13.25
2019-03-06T10:48:14.898Z,13.39
2019-03-06T10:50:44.413Z,13.49
2019-03-06T10:53:13.920Z,13.52
2019-03-06T10:55:43.470Z,13.55
2019-03-06T10:58:13.019Z,13.56
2019-03-06T11:00:52.354Z,13.60
2019-03-06T11:03:24.195Z,13.63
2019-03-06T11:05:53.850Z,13.54
2019-03-06T11:08:25.040Z,13.63
2019-03-06T11:10:54.947Z,13.61
2019-03-06T11:13:24.715Z,13.57
2019-03-06T11:15:55.900Z,13.64
2019-03-06T11:18:25.667Z,13.70
2019-03-06T11:20:55.252Z,13.74
2019-03-06T11:23:25.044Z,13.85
2019-03-06T11:25:54.540Z,13.95
2019-03-06T11:28:24.155Z,13.98
2019-03-06T11:30:55.687Z,14.05
2019-03-06T11:33:25.737Z,14.15
2019-03-06T11:35:56.678Z,14.24
2019-03-06T11:38:27.268Z,14.33
2019-03-06T11:40:57.171Z,14.39
2019-03-06T11:43:26.869Z,14.58
2019-03-06T11:45:56.541Z,14.73
2019-03-06T11:48:26.326Z,14.86
2019-03-06T11:50:55.853Z,14.95
2019-03-06T11:53:25.567Z,14.99
2019-03-06T11:55:55.196Z,15.03
2019-03-06T11:58:24.856Z,14.94
2019-03-06T12:00:54.767Z,14.84
2019-03-06T12:03:24.337Z,14.81
2019-03-06T12:05:54.254Z,14.90
2019-03-06T12:08:23.800Z,14.92
2019-03-06T12:10:53.673Z,14.85
2019-03-06T12:13:23.318Z,14.84
2019-03-06T12:15:53.279Z,14.81
2019-03-06T12:18:24.326Z,14.85
2019-03-06T12:20:54.514Z,14.87
2019-03-06T12:23:24.155Z,14.82
2019-03-06T12:25:53.688Z,14.76
2019-03-06T12:28:23.338Z,14.76
2019-03-06T12:30:52.830Z,14.71
2019-03-06T12:33:25.393Z,14.79
2019-03-06T12:35:55.130Z,14.81
2019-03-06T12:38:24.797Z,14.72
2019-03-06T12:40:54.274Z,14.62
2019-03-06T12:43:23.756Z,14.62
2019-03-06T12:46:27.581Z,14.61
2019-03-06T12:49:07.750Z,14.61
2019-03-06T12:51:39.148Z,14.77
2019-03-06T12:54:09.513Z,14.85
2019-03-06T12:56:39.154Z,14.78
2019-03-06T12:59:08.887Z,14.69
2019-03-06T13:01:39.271Z,14.72
2019-03-06T13:04:08.931Z,14.89
2019-03-06T13:06:38.473Z,14.94
2019-03-06T13:09:19.934Z,14.99
2019-03-06T13:11:49.423Z,15.03
2019-03-06T13:14:19.090Z,15.00
2019-03-06T13:16:49.026Z,15.00
2019-03-06T13:19:18.558Z,15.03
2019-03-06T13:21:48.134Z,15.01
2019-03-06T13:24:18.206Z,15.00
2019-03-06T13:26:47.741Z,14.99
2019-03-06T13:29:17.549Z,14.97
2019-03-06T13:31:47.075Z,15.02
2019-03-06T13:34:35.501Z,15.10
2019-03-06T13:37:05.079Z,15.15
2019-03-06T13:39:34.870Z,15.13
2019-03-06T13:42:04.578Z,15.12
2019-03-06T13:44:34.066Z,15.07
2019-03-06T13:47:03.617Z,15.03
2019-03-06T13:49:33.205Z,15.03
2019-03-06T13:52:02.728Z,15.07
2019-03-06T13:54:32.365Z,15.10
2019-03-06T13:57:01.919Z,15.05
2019-03-06T13:59:31.396Z,15.10
2019-03-06T14:02:00.948Z,15.17
2019-03-06T14:04:31.006Z,15.17
2019-03-06T14:07:03.432Z,15.13
2019-03-06T14:09:32.959Z,15.13
2019-03-06T14:12:04.024Z,15.24
2019-03-06T14:14:33.591Z,15.26
2019-03-06T14:17:03.511Z,15.27
2019-03-06T14:19:33.022Z,15.27
2019-03-06T14:22:02.802Z,15.27
2019-03-06T14:24:32.321Z,15.17
2019-03-06T14:27:01.837Z,15.18
2019-03-06T14:29:31.402Z,15.17
2019-03-06T14:32:00.911Z,15.20
2019-03-06T14:34:30.382Z,15.19
2019-03-06T14:37:00.120Z,15.20
2019-03-06T14:39:31.238Z,15.29
2019-03-06T14:42:01.510Z,15.29
2019-03-06T14:44:31.016Z,15.24
2019-03-06T14:47:00.555Z,15.26
2019-03-06T14:49:30.492Z,15.24
2019-03-06T14:52:07.085Z,15.28
2019-03-06T14:54:31.955Z,15.22
2019-03-06T14:57:01.491Z,15.21
2019-03-06T14:59:31.039Z,15.19
2019-03-06T15:02:00.555Z,15.21
2019-03-06T15:04:30.288Z,15.21
2019-03-06T15:07:00.091Z,15.16
2019-03-06T15:09:29.820Z,15.13
2019-03-06T15:11:59.618Z,15.09
2019-03-06T15:14:35.771Z,15.10
2019-03-06T15:17:00.598Z,15.11
2019-03-06T15:19:30.107Z,15.17
2019-03-06T15:21:59.575Z,15.13
2019-03-06T15:24:29.073Z,15.09
2019-03-06T15:26:58.574Z,15.06
2019-03-06T15:29:28.067Z,15.05
2019-03-06T15:31:57.844Z,15.04
2019-03-06T15:34:27.386Z,14.99
2019-03-06T15:36:56.868Z,14.97
2019-03-06T15:39:42.851Z,14.92
2019-03-06T15:42:08.059Z,14.91
2019-03-06T15:44:37.574Z,14.88
2019-03-06T15:47:07.379Z,14.87
2019-03-06T15:49:36.962Z,14.86
2019-03-06T15:52:11.054Z,14.82
2019-03-06T15:54:40.579Z,14.76
2019-03-06T15:57:10.323Z,14.70
2019-03-06T15:59:40.017Z,14.65
2019-03-06T16:02:09.758Z,14.62
2019-03-06T16:04:39.264Z,14.54
2019-03-06T16:07:08.786Z,14.54
2019-03-06T16:09:38.724Z,14.48
2019-03-06T16:12:08.350Z,14.38
2019-03-06T16:14:37.843Z,14.36
2019-03-06T16:17:07.541Z,14.27
2019-03-06T16:19:37.054Z,14.20
2019-03-06T16:22:06.858Z,14.14
2019-03-06T16:24:37.666Z,14.12
2019-03-06T16:27:07.332Z,14.11
2019-03-06T16:29:36.852Z,14.06
2019-03-06T16:32:06.569Z,13.98
2019-03-06T16:34:36.118Z,13.94
2019-03-06T16:37:06.203Z,13.94
2019-03-06T16:39:35.706Z,13.86
2019-03-06T16:42:05.423Z,13.78
2019-03-06T16:44:35.014Z,13.71
2019-03-06T16:47:06.960Z,13.68
2019-03-06T16:49:36.091Z,13.66
2019-03-06T16:52:05.693Z,13.61
2019-03-06T16:54:35.224Z,13.59
2019-03-06T16:57:04.727Z,13.55
2019-03-06T16:59:34.254Z,13.50
2019-03-06T17:02:03.940Z,13.46
2019-03-06T17:04:33.732Z,13.25
2019-03-06T17:07:03.225Z,13.16
2019-03-06T17:09:32.954Z,13.05
2019-03-06T17:12:02.642Z,13.00
2019-03-06T17:14:32.159Z,12.96
2019-03-06T17:17:01.711Z,12.90
2019-03-06T17:19:31.275Z,12.81
2019-03-06T17:22:00.783Z,12.72
2019-03-06T17:24:30.347Z,12.61
2019-03-06T17:26:59.989Z,12.59
2019-03-06T17:29:29.489Z,12.54
2019-03-06T17:31:59.196Z,12.54
2019-03-06T17:34:30.750Z,12.51
2019-03-06T17:37:01.339Z,12.47
2019-03-06T17:39:30.956Z,12.37
2019-03-06T17:42:00.448Z,12.34
2019-03-06T17:44:30.010Z,12.36
2019-03-06T17:46:59.670Z,12.36
2019-03-06T17:49:29.248Z,12.34
2019-03-06T17:51:58.810Z,12.29
2019-03-06T17:54:28.471Z,12.22
2019-03-06T17:56:58.094Z,12.09
2019-03-06T17:59:27.880Z,12.03
2019-03-06T18:01:57.419Z,11.97
2019-03-06T18:04:28.164Z,11.87
2019-03-06T18:06:57.651Z,11.76
2019-03-06T18:09:27.682Z,11.66
2019-03-06T18:11:57.213Z,11.54
2019-03-06T18:14:26.860Z,11.46
2019-03-06T18:16:56.385Z,11.38
2019-03-06T18:19:25.884Z,11.33
2019-03-06T18:21:55.353Z,11.35
2019-03-06T18:24:24.855Z,11.33
2019-03-06T18:26:54.736Z,11.34
2019-03-06T18:29:24.300Z,11.32
2019-03-06T18:31:53.832Z,11.27
2019-03-06T18:34:23.352Z,11.20
2019-03-06T18:36:52.819Z,11.15
2019-03-06T18:39:22.514Z,11.07
2019-03-06T18:41:52.799Z,11.05
2019-03-06T18:44:22.365Z,11.02
2019-03-06T18:46:52.014Z,10.96
2019-03-06T18:49:21.544Z,10.89
2019-03-06T18:51:51.010Z,10.89
2019-03-06T18:54:20.531Z,10.87
2019-03-06T18:56:50.342Z,10.87
2019-03-06T18:59:19.835Z,10.87
2019-03-06T19:01:49.415Z,10.81
2019-03-06T19:04:18.987Z,10.78
2019-03-06T19:06:48.511Z,10.78
2019-03-06T19:09:19.724Z,10.77
2019-03-06T19:11:49.552Z,10.71
2019-03-06T19:14:19.052Z,10.69
2019-03-06T19:16:48.534Z,10.60
2019-03-06T19:19:18.046Z,10.58
2019-03-06T19:21:47.642Z,10.50
2019-03-06T19:24:17.203Z,10.41
2019-03-06T19:26:46.698Z,10.36
2019-03-06T19:29:16.350Z,10.38
2019-03-06T19:31:45.825Z,10.40
2019-03-06T19:34:15.400Z,10.41
2019-03-06T19:36:44.926Z,10.39
2019-03-06T19:39:17.523Z,10.39
2019-03-06T19:41:47.068Z,10.36
2019-03-06T19:44:16.614Z,10.34
2019-03-06T19:46:46.212Z,10.30
2019-03-06T19:49:15.875Z,10.26
2019-03-06T19:51:51.441Z,10.15
2019-03-06T19:54:16.642Z,10.07
2019-03-06T19:56:46.186Z,10.01
2019-03-06T19:59:15.667Z,9.95
2019-03-06T20:01:45.232Z,9.94
2019-03-06T20:04:14.740Z,10.00
2019-03-06T20:06:45.633Z,10.03
2019-03-06T20:09:26.118Z,9.97
2019-03-06T20:11:55.623Z,9.91
2019-03-06T20:14:25.177Z,9.87
2019-03-06T20:16:54.691Z,9.87
2019-03-06T20:19:24.633Z,9.82
2019-03-06T20:21:54.365Z,9.70
2019-03-06T20:24:23.919Z,9.65
2019-03-06T20:26:53.734Z,9.57
2019-03-06T20:29:23.238Z,9.54
2019-03-06T20:31:52.818Z,9.47
2019-03-06T20:34:22.325Z,9.20
2019-03-06T20:36:52.001Z,9.10
2019-03-06T20:39:21.507Z,9.08
2019-03-06T20:41:51.085Z,9.12
2019-03-06T20:44:21.051Z,9.16
2019-03-06T20:46:50.532Z,9.17
2019-03-06T20:49:20.069Z,9.12
2019-03-06T20:51:49.713Z,9.10
2019-03-06T20:54:19.306Z,9.09
2019-03-06T20:56:48.871Z,9.09
2019-03-06T20:59:18.361Z,9.15
2019-03-06T21:01:47.874Z,9.20
2019-03-06T21:04:17.361Z,9.26
2019-03-06T21:06:47.175Z,9.34
2019-03-06T21:09:17.162Z,9.38
2019-03-06T21:11:46.990Z,9.40
2019-03-06T21:14:16.532Z,9.36
2019-03-06T21:16:46.019Z,9.19
2019-03-06T21:19:15.546Z,9.09
2019-03-06T21:21:45.054Z,8.99
2019-03-06T21:24:14.570Z,9.00
2019-03-06T21:26:44.292Z,9.04
2019-03-06T21:29:13.782Z,9.07
2019-03-06T21:31:43.288Z,9.02
2019-03-06T21:34:12.744Z,8.95
2019-03-06T21:36:42.250Z,8.91
2019-03-06T21:39:22.799Z,8.91
2019-03-06T21:41:52.316Z,8.94
2019-03-06T21:44:21.821Z,8.95
2019-03-06T21:46:51.341Z,8.99
2019-03-06T21:49:20.886Z,8.97
2019-03-06T21:51:50.523Z,8.93
2019-03-06T21:54:20.367Z,8.89
2019-03-06T21:56:49.870Z,8.93
2019-03-06T21:59:19.375Z,8.89
2019-03-06T22:01:48.922Z,8.82
2019-03-06T22:04:18.433Z,8.79
2019-03-06T22:06:47.895Z,8.72
2019-03-06T22:09:17.592Z,8.59
2019-03-06T22:11:47.449Z,8.55
2019-03-06T22:14:16.909Z,8.50
2019-03-06T22:16:46.400Z,8.45
2019-03-06T22:19:15.891Z,8.44
2019-03-06T22:21:45.427Z,8.43
2019-03-06T22:24:14.916Z,8.41
2019-03-06T22:26:44.432Z,8.40
2019-03-06T22:29:13.899Z,8.36
2019-03-06T22:31:43.408Z,8.23
2019-03-06T22:34:12.931Z,8.22
2019-03-06T22:36:42.405Z,8.20
2019-03-06T22:39:12.084Z,8.14
2019-03-06T22:41:41.580Z,8.12
2019-03-06T22:44:11.075Z,8.00
2019-03-06T22:46:40.596Z,7.96
2019-03-06T22:49:10.256Z,7.93
2019-03-06T22:51:39.840Z,7.97
2019-03-06T22:54:09.330Z,8.04
2019-03-06T22:56:38.854Z,7.98
2019-03-06T22:59:08.339Z,7.97
2019-03-06T23:01:39.712Z,7.94
2019-03-06T23:04:09.375Z,7.91
2019-03-06T23:06:38.874Z,7.80
2019-03-06T23:09:12.250Z,7.73
2019-03-06T23:11:42.228Z,7.68
2019-03-06T23:14:11.722Z,7.57
2019-03-06T23:16:41.268Z,7.57
2019-03-06T23:19:13.835Z,7.58
2019-03-06T23:21:43.360Z,7.47
2019-03-06T23:24:12.896Z,7.47
2019-03-06T23:26:43.227Z,7.44
2019-03-06T23:29:12.884Z,7.44
2019-03-06T23:31:42.541Z,7.49
2019-03-06T23:34:12.139Z,7.51
2019-03-06T23:36:41.654Z,7.46
2019-03-06T23:39:14.379Z,7.43
2019-03-06T23:41:43.938Z,7.43
2019-03-06T23:44:15.183Z,7.40
2019-03-06T23:46:44.711Z,7.37
2019-03-06T23:49:14.176Z,7.40
2019-03-06T23:51:48.821Z,7.38
2019-03-06T23:54:19.462Z,7.38
2019-03-06T23:56:49.167Z,7.41
2019-03-06T23:59:18.640Z,7.19
